createdAt,value
2017-08-01T00:00:09.876Z,54.01
2017-08-01T00:02:37.619Z,54.22
2017-08-01T00:05:05.157Z,54.76
2017-08-01T00:07:32.727Z,54.79
2017-08-01T00:10:00.273Z,54.70
2017-08-01T00:12:28.702Z,54.84
2017-08-01T00:14:56.311Z,54.43
2017-08-01T00:17:23.894Z,54.39
2017-08-01T00:19:51.657Z,54.67
2017-08-01T00:22:19.309Z,54.84
2017-08-01T00:24:46.933Z,54.96
2017-08-01T00:27:14.512Z,54.93
2017-08-01T00:29:42.114Z,55.00
2017-08-01T00:32:09.711Z,54.77
2017-08-01T00:34:37.263Z,55.01
2017-08-01T00:37:04.848Z,55.31
2017-08-01T00:39:32.455Z,55.68
2017-08-01T00:42:00.081Z,55.65
2017-08-01T00:44:28.262Z,55.50
2017-08-01T00:46:55.842Z,56.01
2017-08-01T00:49:23.438Z,56.49
2017-08-01T00:51:51.010Z,56.38
2017-08-01T00:54:18.586Z,56.43
2017-08-01T00:56:46.174Z,56.12
2017-08-01T00:59:13.714Z,56.12
2017-08-01T01:01:41.340Z,56.14
2017-08-01T01:04:08.906Z,56.41
2017-08-01T01:06:36.499Z,56.17
2017-08-01T01:09:04.122Z,56.33
2017-08-01T01:11:31.887Z,56.85
2017-08-01T01:13:59.506Z,56.91
2017-08-01T01:16:27.135Z,57.05
2017-08-01T01:18:54.707Z,57.28
2017-08-01T01:21:22.494Z,57.81
2017-08-01T01:23:50.115Z,57.60
2017-08-01T01:26:17.879Z,57.60
2017-08-01T01:28:45.441Z,58.09
2017-08-01T01:31:13.065Z,58.20
2017-08-01T01:33:40.846Z,58.38
2017-08-01T01:36:08.603Z,58.49
2017-08-01T01:38:36.205Z,58.69
2017-08-01T01:41:03.814Z,58.37
2017-08-01T01:43:31.422Z,58.51
2017-08-01T01:45:59.046Z,58.60
2017-08-01T01:48:26.602Z,58.63
2017-08-01T01:50:54.227Z,58.82
2017-08-01T01:53:22.117Z,58.72
2017-08-01T01:55:49.781Z,58.69
2017-08-01T01:58:18.173Z,59.11
2017-08-01T02:00:46.697Z,59.03
2017-08-01T02:03:14.637Z,59.13
2017-08-01T02:05:42.519Z,59.39
2017-08-01T02:08:10.153Z,59.12
2017-08-01T02:10:37.740Z,59.35
2017-08-01T02:13:05.341Z,59.38
2017-08-01T02:15:33.211Z,59.40
2017-08-01T02:18:00.999Z,59.31
2017-08-01T02:20:28.799Z,59.70
2017-08-01T02:22:57.195Z,59.94
2017-08-01T02:25:24.999Z,60.13
2017-08-01T02:27:52.643Z,60.25
2017-08-01T02:30:20.431Z,60.43
2017-08-01T02:32:48.005Z,60.98
2017-08-01T02:35:15.559Z,61.25
2017-08-01T02:37:43.175Z,61.46
2017-08-01T02:40:10.945Z,61.32
2017-08-01T02:42:38.575Z,61.15
2017-08-01T02:45:06.353Z,60.92
2017-08-01T02:47:33.885Z,60.81
2017-08-01T02:50:01.416Z,60.85
2017-08-01T02:52:29.101Z,61.17
2017-08-01T02:54:57.035Z,60.84
2017-08-01T02:57:24.809Z,60.96
2017-08-01T02:59:52.609Z,60.64
2017-08-01T03:02:20.225Z,60.71
2017-08-01T03:04:48.001Z,60.76
2017-08-01T03:07:15.572Z,60.94
2017-08-01T03:09:43.197Z,60.64
2017-08-01T03:12:10.823Z,60.30
2017-08-01T03:14:38.430Z,60.17
2017-08-01T03:17:06.026Z,59.95
2017-08-01T03:19:33.595Z,59.77
2017-08-01T03:22:01.393Z,59.77
2017-08-01T03:24:29.001Z,59.34
2017-08-01T03:26:56.786Z,59.29
2017-08-01T03:29:24.378Z,59.17
2017-08-01T03:31:51.989Z,59.24
2017-08-01T03:34:19.796Z,59.24
2017-08-01T03:36:47.357Z,59.05
2017-08-01T03:39:15.745Z,59.31
2017-08-01T03:41:43.332Z,59.69
2017-08-01T03:44:10.921Z,59.48
2017-08-01T03:46:38.504Z,59.41
2017-08-01T03:49:06.088Z,59.58
2017-08-01T03:51:33.631Z,59.49
2017-08-01T03:54:01.215Z,59.69
2017-08-01T03:56:28.830Z,59.62
2017-08-01T03:58:56.568Z,59.62
2017-08-01T04:01:24.170Z,60.11
2017-08-01T04:03:51.771Z,60.33
2017-08-01T04:06:19.306Z,60.26
2017-08-01T04:08:46.922Z,60.24
2017-08-01T04:11:14.497Z,60.33
2017-08-01T04:13:42.074Z,59.96
2017-08-01T04:16:09.644Z,59.74
2017-08-01T04:18:37.198Z,59.96
2017-08-01T04:21:05.181Z,60.17
2017-08-01T04:23:32.794Z,60.27
2017-08-01T04:26:00.422Z,60.32
2017-08-01T04:28:28.003Z,60.34
2017-08-01T04:30:55.680Z,60.12
2017-08-01T04:33:25.325Z,60.15
2017-08-01T04:35:55.454Z,60.27
2017-08-01T04:38:23.134Z,60.16
2017-08-01T04:40:50.805Z,59.72
2017-08-01T04:43:18.446Z,59.69
2017-08-01T04:45:46.131Z,60.00
2017-08-01T04:48:14.374Z,59.57
2017-08-01T04:50:43.603Z,60.25
2017-08-01T04:53:11.221Z,59.48
2017-08-01T04:55:38.975Z,59.03
2017-08-01T04:58:06.829Z,59.15
2017-08-01T05:00:34.409Z,58.42
2017-08-01T05:03:07.174Z,58.49
2017-08-01T05:05:34.745Z,58.14
2017-08-01T05:08:02.314Z,57.80
2017-08-01T05:10:29.876Z,57.38
2017-08-01T05:12:57.443Z,56.61
2017-08-01T05:15:25.052Z,56.01
2017-08-01T05:17:52.826Z,55.41
2017-08-01T05:20:21.151Z,54.66
2017-08-01T05:22:48.681Z,54.19
2017-08-01T05:25:16.255Z,53.83
2017-08-01T05:27:43.816Z,53.23
2017-08-01T05:30:11.500Z,52.94
2017-08-01T05:32:39.162Z,52.00
2017-08-01T05:35:06.961Z,52.84
2017-08-01T05:37:34.743Z,51.84
2017-08-01T05:40:02.287Z,52.23
2017-08-01T05:42:29.899Z,51.33
2017-08-01T05:44:57.532Z,50.78
2017-08-01T05:47:25.391Z,50.14
2017-08-01T05:49:53.137Z,49.94
2017-08-01T05:52:20.702Z,48.47
2017-08-01T05:54:48.318Z,49.17
2017-08-01T05:57:15.863Z,49.96
2017-08-01T05:59:43.448Z,50.35
2017-08-01T06:02:11.010Z,48.89
2017-08-01T06:04:38.564Z,48.79
2017-08-01T06:07:06.125Z,48.36
2017-08-01T06:09:33.738Z,47.52
2017-08-01T06:12:01.282Z,46.78
2017-08-01T06:14:28.896Z,47.98
2017-08-01T06:16:56.524Z,46.42
2017-08-01T06:19:24.085Z,46.04
2017-08-01T06:21:51.940Z,45.96
2017-08-01T06:24:19.586Z,44.93
2017-08-01T06:26:47.236Z,44.54
2017-08-01T06:29:14.819Z,44.00
2017-08-01T06:31:42.406Z,45.09
2017-08-01T06:34:09.939Z,43.95
2017-08-01T06:36:37.510Z,42.74
2017-08-01T06:39:05.143Z,42.18
2017-08-01T06:41:32.691Z,42.49
2017-08-01T06:44:00.424Z,42.08
2017-08-01T06:46:28.020Z,42.07
2017-08-01T06:48:55.776Z,40.81
2017-08-01T06:51:24.104Z,41.20
2017-08-01T06:53:51.682Z,41.87
2017-08-01T06:56:19.238Z,39.77
2017-08-01T06:58:47.055Z,40.61
2017-08-01T07:01:14.671Z,39.54
2017-08-01T07:03:42.185Z,40.48
2017-08-01T07:06:09.731Z,40.03
2017-08-01T07:08:37.305Z,37.85
2017-08-01T07:11:04.847Z,37.97
2017-08-01T07:13:32.385Z,37.13
2017-08-01T07:15:59.974Z,37.63
2017-08-01T07:18:27.516Z,38.98
2017-08-01T07:20:55.085Z,39.29
2017-08-01T07:23:22.720Z,37.90
2017-08-01T07:25:50.269Z,37.40
2017-08-01T07:28:17.866Z,35.79
2017-08-01T07:30:45.475Z,34.30
2017-08-01T07:33:13.066Z,35.27
2017-08-01T07:35:40.635Z,31.98
2017-08-01T07:38:08.202Z,33.14
2017-08-01T07:40:35.942Z,34.25
2017-08-01T07:43:03.526Z,32.63
2017-08-01T07:45:31.149Z,32.14
2017-08-01T07:47:58.709Z,31.78
2017-08-01T07:50:26.263Z,32.61
2017-08-01T07:52:53.877Z,32.64
2017-08-01T07:55:21.621Z,32.27
2017-08-01T07:57:49.174Z,32.50
2017-08-01T08:00:16.825Z,32.44
2017-08-01T08:02:44.384Z,32.05
2017-08-01T08:05:11.943Z,32.33
2017-08-01T08:07:39.540Z,32.71
2017-08-01T08:10:07.116Z,31.83
2017-08-01T08:12:34.722Z,32.20
2017-08-01T08:15:02.318Z,32.23
2017-08-01T08:17:29.875Z,30.42
2017-08-01T08:19:57.615Z,31.70
2017-08-01T08:22:25.207Z,31.58
2017-08-01T08:24:52.822Z,31.76
2017-08-01T08:27:20.631Z,30.21
2017-08-01T08:29:48.238Z,30.69
2017-08-01T08:32:15.831Z,29.73
2017-08-01T08:34:43.426Z,29.33
2017-08-01T08:37:12.175Z,28.75
2017-08-01T08:39:39.778Z,28.97
2017-08-01T08:42:07.532Z,29.34
2017-08-01T08:44:35.073Z,29.08
2017-08-01T08:47:02.645Z,28.79
2017-08-01T08:49:30.244Z,29.05
2017-08-01T08:51:57.877Z,29.84
2017-08-01T08:54:25.512Z,29.34
2017-08-01T08:56:53.099Z,29.89
2017-08-01T08:59:21.161Z,29.03
2017-08-01T09:01:48.755Z,29.00
2017-08-01T09:04:16.286Z,28.76
2017-08-01T09:06:43.836Z,28.56
2017-08-01T09:09:11.439Z,29.08
2017-08-01T09:11:39.040Z,28.55
2017-08-01T09:14:06.967Z,29.03
2017-08-01T09:16:34.553Z,29.32
2017-08-01T09:19:02.097Z,29.48
2017-08-01T09:21:29.913Z,29.45
2017-08-01T09:23:58.423Z,28.44
2017-08-01T09:26:26.050Z,28.24
2017-08-01T09:28:53.676Z,27.79
2017-08-01T09:31:21.273Z,28.29
2017-08-01T09:33:48.891Z,27.93
2017-08-01T09:36:16.652Z,27.57
2017-08-01T09:38:44.240Z,27.90
2017-08-01T09:41:11.824Z,26.25
2017-08-01T09:43:39.376Z,25.82
2017-08-01T09:46:07.884Z,26.90
2017-08-01T09:48:36.102Z,27.09
2017-08-01T09:51:04.003Z,26.86
2017-08-01T09:53:31.867Z,26.62
2017-08-01T09:56:00.344Z,27.71
2017-08-01T09:58:28.730Z,27.91
2017-08-01T10:00:56.365Z,28.46
2017-08-01T10:03:23.927Z,28.44
2017-08-01T10:05:52.463Z,29.23
2017-08-01T10:08:20.584Z,29.14
2017-08-01T10:10:48.170Z,28.20
2017-08-01T10:13:15.719Z,28.84
2017-08-01T10:15:43.366Z,28.77
2017-08-01T10:18:11.286Z,29.29
2017-08-01T10:20:38.880Z,29.57
2017-08-01T10:23:06.502Z,30.72
2017-08-01T10:25:34.179Z,29.90
2017-08-01T10:28:01.751Z,29.38
2017-08-01T10:30:29.549Z,28.69
2017-08-01T10:32:58.901Z,29.33
2017-08-01T10:35:26.528Z,29.43
2017-08-01T10:37:54.177Z,29.88
2017-08-01T10:40:21.808Z,29.48
2017-08-01T10:42:49.627Z,29.28
2017-08-01T10:45:18.170Z,28.48
2017-08-01T10:47:45.710Z,28.76
2017-08-01T10:50:13.331Z,28.52
2017-08-01T10:52:41.136Z,28.31
2017-08-01T10:55:08.719Z,28.67
2017-08-01T10:57:36.483Z,28.48
2017-08-01T11:00:11.437Z,29.89
2017-08-01T11:02:39.774Z,29.44
2017-08-01T11:05:07.423Z,29.03
2017-08-01T11:07:35.025Z,28.69
2017-08-01T11:10:02.583Z,28.62
2017-08-01T11:12:30.139Z,28.03
2017-08-01T11:14:57.713Z,27.92
2017-08-01T11:17:25.513Z,27.95
2017-08-01T11:19:53.136Z,28.08
2017-08-01T11:22:21.345Z,27.68
2017-08-01T11:24:49.878Z,27.12
2017-08-01T11:27:17.500Z,26.62
2017-08-01T11:29:46.038Z,26.94
2017-08-01T11:32:13.675Z,27.06
2017-08-01T11:34:41.429Z,27.24
2017-08-01T11:37:09.180Z,27.38
2017-08-01T11:39:36.995Z,26.70
2017-08-01T11:42:04.603Z,26.88
2017-08-01T11:44:32.373Z,27.11
2017-08-01T11:46:59.961Z,27.99
2017-08-01T11:49:27.575Z,28.30
2017-08-01T11:51:55.331Z,28.29
2017-08-01T11:54:22.942Z,28.34
2017-08-01T11:56:50.686Z,28.66
2017-08-01T11:59:18.419Z,27.67
2017-08-01T12:01:46.013Z,27.54
2017-08-01T12:04:13.530Z,27.64
2017-08-01T12:06:41.351Z,27.83
2017-08-01T12:09:08.952Z,28.19
2017-08-01T12:11:36.506Z,28.02
2017-08-01T12:14:04.077Z,28.43
2017-08-01T12:16:31.696Z,28.36
2017-08-01T12:18:59.322Z,27.97
2017-08-01T12:21:27.092Z,27.47
2017-08-01T12:23:54.698Z,27.50
2017-08-01T12:26:22.435Z,27.11
2017-08-01T12:28:50.039Z,27.28
2017-08-01T12:31:17.605Z,27.29
2017-08-01T12:33:45.227Z,28.25
2017-08-01T12:36:12.787Z,28.59
2017-08-01T12:38:40.403Z,28.23
2017-08-01T12:41:07.954Z,27.83
2017-08-01T12:43:35.519Z,27.79
2017-08-01T12:46:03.316Z,27.82
2017-08-01T12:48:31.414Z,27.90
2017-08-01T12:50:59.039Z,27.52
2017-08-01T12:53:26.650Z,27.94
2017-08-01T12:55:54.263Z,27.71
2017-08-01T12:58:22.074Z,27.07
2017-08-01T13:00:50.053Z,27.57
2017-08-01T13:03:17.800Z,27.67
2017-08-01T13:05:45.341Z,27.91
2017-08-01T13:08:13.696Z,27.94
2017-08-01T13:10:41.464Z,28.04
2017-08-01T13:13:09.025Z,28.01
2017-08-01T13:15:36.603Z,28.09
2017-08-01T13:18:04.261Z,27.90
2017-08-01T13:20:31.819Z,27.68
2017-08-01T13:22:59.399Z,27.85
2017-08-01T13:25:26.986Z,28.10
2017-08-01T13:27:54.788Z,28.25
2017-08-01T13:30:22.523Z,28.45
2017-08-01T13:32:50.840Z,28.11
2017-08-01T13:35:18.408Z,28.22
2017-08-01T13:37:45.982Z,28.29
2017-08-01T13:40:13.578Z,28.32
2017-08-01T13:42:41.472Z,28.35
2017-08-01T13:45:09.052Z,27.95
2017-08-01T13:47:36.863Z,28.12
2017-08-01T13:50:04.441Z,28.16
2017-08-01T13:52:32.020Z,27.92
2017-08-01T13:54:59.790Z,28.07
2017-08-01T13:57:27.417Z,28.66
2017-08-01T13:59:54.981Z,28.51
2017-08-01T14:02:22.554Z,28.60
2017-08-01T14:04:50.131Z,28.87
2017-08-01T14:07:17.771Z,28.98
2017-08-01T14:09:45.549Z,28.89
2017-08-01T14:12:13.171Z,28.90
2017-08-01T14:14:40.979Z,28.78
2017-08-01T14:17:09.339Z,28.54
2017-08-01T14:19:36.951Z,29.35
2017-08-01T14:22:04.823Z,29.22
2017-08-01T14:24:32.666Z,29.18
2017-08-01T14:27:00.206Z,28.73
2017-08-01T14:29:27.762Z,28.92
2017-08-01T14:31:55.342Z,28.88
2017-08-01T14:34:23.094Z,28.81
2017-08-01T14:36:50.686Z,28.91
2017-08-01T14:39:18.307Z,28.80
2017-08-01T14:41:46.129Z,29.20
2017-08-01T14:44:13.739Z,28.70
2017-08-01T14:46:41.383Z,28.42
2017-08-01T14:49:08.927Z,28.66
2017-08-01T14:51:36.503Z,28.28
2017-08-01T14:54:04.097Z,28.53
2017-08-01T14:56:31.643Z,28.38
2017-08-01T14:58:59.210Z,28.88
2017-08-01T15:01:26.806Z,28.63
2017-08-01T15:03:54.369Z,28.23
2017-08-01T15:06:21.961Z,28.32
2017-08-01T15:08:49.586Z,28.11
2017-08-01T15:11:17.118Z,28.21
2017-08-01T15:13:44.765Z,27.58
2017-08-01T15:16:12.348Z,28.08
2017-08-01T15:18:39.955Z,27.99
2017-08-01T15:21:07.572Z,28.45
2017-08-01T15:23:35.150Z,28.42
2017-08-01T15:26:02.670Z,28.59
2017-08-01T15:28:30.185Z,28.52
2017-08-01T15:30:57.783Z,28.75
2017-08-01T15:33:25.334Z,28.62
2017-08-01T15:35:52.943Z,29.00
2017-08-01T15:38:20.520Z,28.92
2017-08-01T15:40:48.071Z,29.29
2017-08-01T15:43:15.637Z,28.85
2017-08-01T15:45:43.255Z,29.19
2017-08-01T15:48:10.798Z,29.23
2017-08-01T15:50:38.525Z,29.09
2017-08-01T15:53:06.131Z,28.91
2017-08-01T15:55:33.872Z,28.97
2017-08-01T15:58:01.461Z,28.71
2017-08-01T16:00:29.050Z,28.67
2017-08-01T16:02:56.589Z,28.43
2017-08-01T16:05:24.399Z,28.29
2017-08-01T16:07:51.971Z,28.25
2017-08-01T16:10:19.584Z,28.28
2017-08-01T16:12:47.134Z,28.14
2017-08-01T16:15:14.755Z,28.57
2017-08-01T16:17:42.383Z,28.52
2017-08-01T16:20:10.131Z,28.42
2017-08-01T16:22:37.719Z,28.52
2017-08-01T16:25:05.256Z,28.53
2017-08-01T16:27:32.880Z,28.67
2017-08-01T16:30:00.468Z,28.10
2017-08-01T16:32:28.050Z,28.44
2017-08-01T16:34:55.647Z,28.59
2017-08-01T16:37:23.429Z,28.83
2017-08-01T16:39:51.013Z,28.72
2017-08-01T16:42:18.643Z,30.21
2017-08-01T16:44:46.175Z,30.98
2017-08-01T16:47:13.788Z,29.64
2017-08-01T16:49:42.750Z,30.54
2017-08-01T16:52:10.306Z,29.79
2017-08-01T16:54:37.918Z,29.59
2017-08-01T16:57:05.430Z,29.11
2017-08-01T16:59:32.975Z,30.58
2017-08-01T17:02:00.534Z,29.96
2017-08-01T17:04:28.473Z,28.76
2017-08-01T17:06:57.311Z,29.22
2017-08-01T17:09:26.128Z,29.22
2017-08-01T17:11:54.667Z,30.36
2017-08-01T17:14:23.300Z,29.92
2017-08-01T17:16:52.807Z,30.22
2017-08-01T17:19:21.425Z,30.72
2017-08-01T17:21:50.242Z,31.10
2017-08-01T17:24:19.176Z,31.38
2017-08-01T17:26:48.096Z,31.79
2017-08-01T17:29:15.967Z,31.85
2017-08-01T17:31:45.641Z,31.95
2017-08-01T17:34:14.936Z,32.27
2017-08-01T17:36:43.952Z,32.46
2017-08-01T17:39:12.965Z,32.94
2017-08-01T17:41:41.697Z,33.20
2017-08-01T17:44:11.979Z,33.07
2017-08-01T17:46:41.024Z,33.40
2017-08-01T17:49:09.807Z,33.54
2017-08-01T17:51:39.813Z,33.91
2017-08-01T17:54:08.798Z,34.02
2017-08-01T17:56:36.710Z,34.10
2017-08-01T17:59:04.316Z,33.99
2017-08-01T18:01:31.984Z,34.08
2017-08-01T18:03:59.795Z,34.41
2017-08-01T18:06:33.991Z,34.43
2017-08-01T18:09:02.795Z,34.50
2017-08-01T18:11:31.594Z,34.33
2017-08-01T18:14:01.815Z,34.33
2017-08-01T18:16:30.276Z,34.48
2017-08-01T18:18:58.051Z,34.52
2017-08-01T18:21:25.642Z,34.75
2017-08-01T18:23:53.247Z,34.78
2017-08-01T18:26:20.812Z,34.45
2017-08-01T18:28:48.597Z,34.88
2017-08-01T18:31:16.169Z,35.11
2017-08-01T18:33:43.956Z,34.97
2017-08-01T18:36:11.740Z,34.98
2017-08-01T18:38:40.059Z,35.48
2017-08-01T18:41:07.680Z,35.75
2017-08-01T18:43:35.238Z,35.77
2017-08-01T18:46:02.918Z,36.43
2017-08-01T18:48:30.497Z,36.43
2017-08-01T18:50:58.259Z,36.62
2017-08-01T18:53:25.898Z,36.84
2017-08-01T18:55:53.697Z,37.31
2017-08-01T18:58:21.489Z,37.03
2017-08-01T19:00:49.115Z,37.30
2017-08-01T19:03:16.709Z,37.52
2017-08-01T19:05:44.991Z,37.75
2017-08-01T19:08:13.397Z,38.14
2017-08-01T19:10:41.250Z,37.95
2017-08-01T19:13:08.813Z,38.19
2017-08-01T19:15:36.394Z,38.16
2017-08-01T19:18:04.204Z,38.15
2017-08-01T19:20:32.025Z,38.46
2017-08-01T19:22:59.666Z,38.82
2017-08-01T19:25:27.172Z,38.89
2017-08-01T19:27:54.678Z,39.22
2017-08-01T19:30:22.413Z,39.34
2017-08-01T19:32:49.956Z,39.59
2017-08-01T19:35:17.551Z,39.47
2017-08-01T19:37:45.175Z,39.86
2017-08-01T19:40:12.719Z,39.67
2017-08-01T19:42:40.258Z,39.61
2017-08-01T19:45:08.122Z,39.67
2017-08-01T19:47:35.671Z,40.01
2017-08-01T19:50:03.254Z,39.87
2017-08-01T19:52:30.836Z,39.81
2017-08-01T19:54:58.363Z,39.76
2017-08-01T19:57:26.109Z,39.73
2017-08-01T19:59:53.694Z,40.09
2017-08-01T20:02:21.266Z,39.91
2017-08-01T20:04:48.845Z,40.30
2017-08-01T20:07:16.398Z,40.45
2017-08-01T20:09:44.863Z,40.06
2017-08-01T20:12:12.626Z,40.18
2017-08-01T20:14:40.379Z,40.57
2017-08-01T20:17:07.942Z,40.44
2017-08-01T20:19:35.521Z,40.50
2017-08-01T20:22:04.317Z,40.77
2017-08-01T20:24:32.806Z,40.71
2017-08-01T20:27:01.930Z,41.18
2017-08-01T20:29:29.810Z,41.75
2017-08-01T20:31:57.538Z,41.32
2017-08-01T20:34:25.171Z,41.13
2017-08-01T20:36:52.751Z,41.45
2017-08-01T20:39:20.460Z,41.38
2017-08-01T20:41:48.014Z,41.21
2017-08-01T20:44:15.607Z,41.30
2017-08-01T20:46:43.383Z,41.42
2017-08-01T20:49:10.958Z,41.73
2017-08-01T20:51:38.538Z,41.96
2017-08-01T20:54:06.133Z,42.32
2017-08-01T20:56:33.751Z,42.48
2017-08-01T20:59:01.333Z,42.42
2017-08-01T21:01:28.948Z,42.59
2017-08-01T21:03:56.784Z,42.86
2017-08-01T21:06:24.387Z,43.02
2017-08-01T21:08:52.030Z,43.57
2017-08-01T21:11:19.621Z,43.62
2017-08-01T21:13:47.174Z,43.69
2017-08-01T21:16:14.779Z,44.20
2017-08-01T21:18:42.496Z,44.04
2017-08-01T21:21:10.215Z,44.07
2017-08-01T21:23:37.795Z,43.98
2017-08-01T21:26:05.431Z,44.05
2017-08-01T21:28:32.978Z,44.04
2017-08-01T21:31:00.618Z,44.00
2017-08-01T21:33:28.180Z,44.57
2017-08-01T21:35:55.990Z,44.64
2017-08-01T21:38:23.572Z,44.63
2017-08-01T21:40:51.164Z,45.11
2017-08-01T21:43:18.734Z,45.33
2017-08-01T21:45:46.365Z,45.77
2017-08-01T21:48:13.959Z,45.31
2017-08-01T21:50:41.555Z,46.01
2017-08-01T21:53:09.117Z,45.65
2017-08-01T21:55:40.578Z,45.16
2017-08-01T21:58:08.488Z,45.59
2017-08-01T22:00:36.171Z,45.66
2017-08-01T22:03:04.666Z,45.63
2017-08-01T22:05:32.277Z,45.64
2017-08-01T22:08:00.696Z,46.41
2017-08-01T22:10:28.307Z,46.26
2017-08-01T22:12:55.874Z,46.06
2017-08-01T22:15:23.493Z,45.87
2017-08-01T22:17:51.058Z,45.85
2017-08-01T22:20:18.758Z,45.82
2017-08-01T22:22:46.385Z,45.76
2017-08-01T22:25:13.995Z,46.12
2017-08-01T22:27:42.551Z,46.37
2017-08-01T22:30:10.272Z,46.83
2017-08-01T22:32:37.860Z,46.59
2017-08-01T22:35:05.420Z,45.69
2017-08-01T22:37:33.038Z,46.14
2017-08-01T22:40:00.650Z,46.93
2017-08-01T22:42:28.426Z,47.40
2017-08-01T22:44:56.057Z,47.59
2017-08-01T22:47:23.694Z,47.43
2017-08-01T22:49:51.286Z,47.89
2017-08-01T22:52:18.943Z,48.25
2017-08-01T22:54:46.591Z,48.51
2017-08-01T22:57:14.252Z,48.54
2017-08-01T22:59:41.899Z,48.84
2017-08-01T23:02:09.531Z,49.57
2017-08-01T23:04:37.167Z,50.69
2017-08-01T23:07:04.795Z,51.08
2017-08-01T23:09:32.402Z,51.75
2017-08-01T23:12:00.023Z,52.91
2017-08-01T23:14:27.939Z,53.16
2017-08-01T23:16:55.535Z,53.07
2017-08-01T23:19:23.734Z,53.86
2017-08-01T23:21:51.311Z,54.56
2017-08-01T23:24:18.929Z,54.97
2017-08-01T23:26:46.536Z,54.87
2017-08-01T23:29:14.123Z,55.29
2017-08-01T23:31:41.725Z,55.61
2017-08-01T23:34:09.318Z,55.95
2017-08-01T23:36:36.918Z,55.94
2017-08-01T23:39:04.541Z,56.08
2017-08-01T23:41:32.112Z,55.65
2017-08-01T23:43:59.770Z,55.36
2017-08-01T23:46:27.441Z,55.19
2017-08-01T23:48:55.052Z,54.13
2017-08-01T23:51:22.687Z,54.05
2017-08-01T23:53:51.148Z,53.58
2017-08-01T23:56:19.569Z,53.78
2017-08-01T23:58:47.155Z,52.90
